Time;durP1;ratioP1;P1;durP2;ratioP2;P2;SDS_P1;SDS_P2;PMS_P1;PMS_P2;Temp;Humidity;BMP_temperature;BMP_pressure;BME280_temperature;BME280_humidity;BME280_pressure;Samples;Min_cycle;Max_cycle;Signal;HPM_P1;HPM_P2
2022/04/07 00:01:32;;;;;;;5.68;2.20;;;;;;;-0.05;63.94;98967.06;4963807;28;20043;-80
2022/04/07 00:03:58;;;;;;;4.22;2.28;;;;;;;-0.11;64.13;98961.81;4948562;28;20043;-81
2022/04/07 00:06:24;;;;;;;3.75;2.50;;;;;;;-0.09;64.35;98957.59;4947764;28;20043;-81
2022/04/07 00:08:50;;;;;;;3.75;2.30;;;;;;;-0.01;64.13;98971.44;4932287;28;20050;-78
2022/04/07 00:11:17;;;;;;;5.72;2.25;;;;;;;0.10;64.12;98981.88;4946210;28;20072;-82
2022/04/07 00:13:43;;;;;;;4.05;2.33;;;;;;;-0.11;64.05;98941.38;4956533;28;20050;-80
2022/04/07 00:16:09;;;;;;;3.60;2.20;;;;;;;0.20;63.97;98980.38;4940567;28;20042;-78
2022/04/07 00:18:36;;;;;;;3.28;2.00;;;;;;;0.02;64.29;98951.88;4955734;28;20042;-81
2022/04/07 00:21:06;;;;;;;2.67;2.00;;;;;;;0.22;64.55;98990.66;4972860;28;20067;-79
2022/04/07 00:23:35;;;;;;;4.97;2.20;;;;;;;0.11;64.64;98962.28;4968379;28;20057;-80
2022/04/07 00:26:02;;;;;;;4.00;2.55;;;;;;;0.08;63.92;98952.84;4957996;28;20042;-81
2022/04/07 00:28:28;;;;;;;3.13;2.20;;;;;;;0.21;64.12;98984.66;4978545;28;20053;-81
2022/04/07 00:30:54;;;;;;;3.95;2.60;;;;;;;0.07;64.50;98951.13;4968883;28;20031;-79
2022/04/07 00:33:20;;;;;;;2.97;1.95;;;;;;;0.28;64.48;98983.97;4957309;28;20044;-79
2022/04/07 00:35:46;;;;;;;3.38;1.95;;;;;;;0.12;64.54;98954.63;4969085;28;20046;-82
2022/04/07 00:38:12;;;;;;;3.67;2.22;;;;;;;0.29;64.56;98982.25;4945671;28;20091;-80
2022/04/07 00:40:38;;;;;;;3.15;2.10;;;;;;;0.13;64.77;98956.38;4972246;28;20551;-78
2022/04/07 00:43:05;;;;;;;2.45;2.00;;;;;;;0.24;64.40;98969.38;4972297;28;20046;-79
2022/04/07 00:45:31;;;;;;;4.35;2.20;;;;;;;0.12;64.88;98946.06;4973130;28;20133;-78
2022/04/07 00:47:58;;;;;;;3.38;2.33;;;;;;;0.34;64.43;98980.63;4938835;28;20057;-78
2022/04/07 00:50:24;;;;;;;3.72;2.05;;;;;;;0.29;64.22;98970.31;4955553;28;20055;-80
2022/04/07 00:52:54;;;;;;;4.40;2.08;;;;;;;0.41;64.50;98974.81;4954343;28;20510;-79
2022/04/07 00:55:22;;;;;;;3.47;2.50;;;;;;;0.33;64.73;98958.44;4973165;28;20046;-81
2022/04/07 00:57:49;;;;;;;3.13;2.15;;;;;;;0.31;64.28;98949.03;4971925;28;20037;-80
2022/04/07 01:00:15;;;;;;;3.17;1.98;;;;;;;0.42;64.18;98978.22;4972468;28;20058;-80
2022/04/07 01:02:42;;;;;;;2.85;2.08;;;;;;;0.44;64.62;98971.44;4951681;28;20045;-80
2022/04/07 01:05:09;;;;;;;4.20;2.30;;;;;;;0.38;64.27;98961.94;4957699;28;20057;-79
2022/04/07 01:07:37;;;;;;;4.20;2.20;;;;;;;0.25;64.80;98947.19;4972853;28;20120;-80
2022/04/07 01:10:06;;;;;;;3.47;2.20;;;;;;;0.40;64.13;98974.78;4979127;28;20379;-81
2022/04/07 01:12:31;;;;;;;5.10;2.60;;;;;;;0.29;64.53;98952.41;4954075;28;20042;-78
2022/04/07 01:15:04;;;;;;;4.43;2.50;;;;;;;0.28;64.02;98945.56;4983377;28;20045;-79
2022/04/07 01:17:31;;;;;;;5.20;2.50;;;;;;;0.35;64.56;98954.22;4978262;28;20042;-79
2022/04/07 01:19:57;;;;;;;4.35;2.58;;;;;;;0.52;64.01;98974.13;4968377;28;20088;-82
2022/04/07 01:22:24;;;;;;;3.25;2.28;;;;;;;0.45;63.84;98974.00;4970130;28;20393;-79
2022/04/07 01:24:50;;;;;;;4.85;2.33;;;;;;;0.49;64.35;98974.06;4983746;28;20042;-80
2022/04/07 01:27:18;;;;;;;4.32;2.35;;;;;;;0.44;64.09;98963.75;4967992;28;20096;-78
2022/04/07 01:29:45;;;;;;;3.88;2.60;;;;;;;0.43;63.77;98972.28;4965150;28;20125;-81
2022/04/07 01:32:19;;;;;;;4.28;2.20;;;;;;;0.42;64.80;98967.97;4968619;28;20141;-81
2022/04/07 01:34:46;;;;;;;4.57;2.55;;;;;;;0.31;63.83;98954.13;4976194;28;20034;-79
2022/04/07 01:37:12;;;;;;;4.65;2.70;;;;;;;0.29;64.38;98954.09;4974980;28;20076;-80
2022/04/07 01:39:40;;;;;;;4.60;2.55;;;;;;;0.18;64.73;98943.66;4983293;28;20793;-81
2022/04/07 01:42:08;;;;;;;5.53;3.03;;;;;;;0.37;64.48;98982.38;4987004;28;20088;-79
2022/04/07 01:44:39;;;;;;;4.10;2.60;;;;;;;0.19;64.44;98945.38;4968959;28;20042;-80
2022/04/07 01:47:08;;;;;;;5.32;3.00;;;;;;;0.31;64.71;98962.66;4979863;28;20137;-80
2022/04/07 01:49:36;;;;;;;4.05;2.50;;;;;;;0.33;64.22;98968.69;4949773;28;20038;-80
2022/04/07 01:52:03;;;;;;;5.78;3.13;;;;;;;0.27;64.59;98963.44;4964031;28;20042;-79
2022/04/07 01:54:31;;;;;;;5.45;3.00;;;;;;;0.27;64.50;98964.31;4982767;28;20043;-79
2022/04/07 01:56:58;;;;;;;4.75;3.10;;;;;;;0.28;64.81;98966.03;4977884;28;20126;-83
2022/04/07 01:59:25;;;;;;;5.90;3.38;;;;;;;-0.37;65.02;98857.34;4968007;28;20043;-82
2022/04/07 02:01:52;;;;;;;5.70;3.35;;;;;;;0.15;64.48;98930.78;4961186;28;20038;-79
2022/04/07 02:04:18;;;;;;;5.32;2.95;;;;;;;0.35;64.51;98956.78;4967458;28;20105;-79
2022/04/07 02:06:44;;;;;;;4.38;2.80;;;;;;;0.29;64.58;98952.41;4985433;28;20407;-81
2022/04/07 02:09:10;;;;;;;8.23;3.38;;;;;;;0.35;64.88;98968.69;4956540;28;20039;-81
2022/04/07 02:11:37;;;;;;;5.85;3.30;;;;;;;0.08;64.81;98908.50;4972550;28;20196;-80
2022/04/07 02:14:03;;;;;;;7.00;3.40;;;;;;;-0.07;64.89;98892.00;4972357;28;20077;-81
2022/04/07 02:16:32;;;;;;;8.63;3.72;;;;;;;0.43;64.72;98964.59;4971206;28;20038;-83
2022/04/07 02:18:58;;;;;;;5.97;3.20;;;;;;;-0.02;64.96;98890.41;4980256;28;20046;-79
2022/04/07 02:21:24;;;;;;;6.85;3.38;;;;;;;0.22;64.93;98927.53;4960260;28;20387;-80
2022/04/07 02:23:51;;;;;;;6.22;4.03;;;;;;;0.28;65.10;98949.81;4961634;28;20045;-81
2022/04/07 02:26:17;;;;;;;4.28;2.75;;;;;;;-0.25;64.92;98851.59;4983338;28;20038;-82
2022/04/07 02:28:45;;;;;;;6.22;3.38;;;;;;;0.31;65.29;98942.19;4971382;28;20042;-80
2022/04/07 02:31:11;;;;;;;5.30;3.13;;;;;;;0.36;64.79;98955.94;4980489;28;20113;-81
2022/04/07 02:33:38;;;;;;;5.15;3.25;;;;;;;-0.05;64.60;98895.44;4975940;28;20140;-81
2022/04/07 02:36:05;;;;;;;5.57;3.10;;;;;;;0.43;65.08;98960.34;4973116;28;20099;-80
2022/04/07 02:38:33;;;;;;;4.70;2.97;;;;;;;0.46;65.24;98959.53;4991012;28;20046;-79
2022/04/07 02:40:59;;;;;;;5.38;3.22;;;;;;;0.24;64.96;98938.66;4988151;28;20528;-82
2022/04/07 02:43:25;;;;;;;5.45;3.10;;;;;;;0.00;65.05;98882.78;4965028;28;20053;-80
2022/04/07 02:45:52;;;;;;;8.55;3.17;;;;;;;0.40;65.24;98965.41;4973824;28;20062;-79
2022/04/07 02:48:18;;;;;;;5.75;3.60;;;;;;;0.10;65.28;98917.06;4970930;28;20061;-79
2022/04/07 02:50:44;;;;;;;5.15;2.90;;;;;;;0.51;65.50;98972.41;5005386;28;20042;-77
2022/04/07 02:53:10;;;;;;;5.85;3.53;;;;;;;0.29;65.34;98937.06;4988465;28;20034;-80
2022/04/07 02:55:36;;;;;;;7.32;3.70;;;;;;;0.57;65.27;98978.50;4982584;28;19917;-82
2022/04/07 02:58:02;;;;;;;6.90;3.30;;;;;;;0.42;65.77;98940.69;5007438;28;20053;-83
2022/04/07 03:00:28;;;;;;;4.32;2.67;;;;;;;0.18;64.92;98897.59;5008163;28;20029;-81
2022/04/07 03:02:54;;;;;;;5.53;3.35;;;;;;;0.53;65.45;98951.13;4984212;28;20057;-82
2022/04/07 03:05:21;;;;;;;6.28;3.47;;;;;;;0.35;65.39;98912.38;4986956;28;20049;-80
2022/04/07 03:07:50;;;;;;;6.22;3.55;;;;;;;0.58;65.89;98956.34;4989229;28;20042;-83
2022/04/07 03:10:16;;;;;;;4.90;3.10;;;;;;;0.50;65.44;98938.28;4983811;28;20073;-80
2022/04/07 03:12:42;;;;;;;5.72;3.53;;;;;;;0.74;65.68;98977.97;4954048;28;20136;-80
2022/04/07 03:15:09;;;;;;;7.35;3.30;;;;;;;0.81;65.34;98989.16;4993290;28;20046;-81
2022/04/07 03:17:35;;;;;;;6.88;3.03;;;;;;;0.68;65.54;98959.91;4992075;28;20053;-80
2022/04/07 03:20:02;;;;;;;5.30;3.17;;;;;;;0.62;65.52;98939.31;4957876;28;20038;-81
2022/04/07 03:22:29;;;;;;;5.53;2.90;;;;;;;0.75;65.39;98956.63;4925102;28;20133;-82
2022/04/07 03:24:55;;;;;;;7.65;3.67;;;;;;;0.35;65.17;98892.78;4981409;28;20121;-80
2022/04/07 03:27:21;;;;;;;6.70;3.85;;;;;;;0.49;65.25;98907.50;4983497;28;20466;-80
2022/04/07 03:29:48;;;;;;;6.35;2.95;;;;;;;0.66;65.01;98910.38;4973492;28;20050;-81
2022/04/07 03:32:14;;;;;;;7.22;3.03;;;;;;;0.66;65.50;98908.69;4983635;28;20046;-81
2022/04/07 03:34:40;;;;;;;6.22;3.42;;;;;;;1.11;65.39;98981.13;4982342;28;20060;-79
2022/04/07 03:37:06;;;;;;;7.20;3.42;;;;;;;0.96;64.83;98950.16;4975908;28;20034;-82
2022/04/07 03:39:33;;;;;;;7.53;3.78;;;;;;;0.73;65.20;98904.53;4993011;28;20451;-82
2022/04/07 03:41:59;;;;;;;7.25;3.70;;;;;;;0.69;65.72;98879.69;4974404;28;20369;-82
2022/04/07 03:44:26;;;;;;;6.50;3.65;;;;;;;0.75;65.35;98884.94;4974959;28;20447;-82
2022/04/07 03:46:53;;;;;;;9.00;3.83;;;;;;;0.66;65.05;98856.59;4974164;28;20350;-80
2022/04/07 03:49:24;;;;;;;6.95;3.85;;;;;;;1.08;65.10;98927.25;4975919;28;20042;-83
2022/04/07 03:51:50;;;;;;;7.15;3.67;;;;;;;0.95;65.40;98912.56;4972544;28;20042;-82
2022/04/07 03:54:17;;;;;;;8.07;4.18;;;;;;;1.17;65.58;98942.81;4977101;28;20498;-81
2022/04/07 03:56:46;;;;;;;6.63;3.58;;;;;;;0.78;64.77;98886.66;4977255;28;20046;-79
2022/04/07 03:59:12;;;;;;;6.70;3.70;;;;;;;1.15;64.84;98956.41;4999580;28;20042;-77
2022/04/07 04:01:40;;;;;;;7.20;3.67;;;;;;;1.40;65.08;98985.00;4980193;28;20061;-80
2022/04/07 04:04:17;;;;;;;6.72;3.83;;;;;;;1.18;65.18;98944.53;4965275;28;20034;-81
2022/04/07 04:06:53;;;;;;;7.55;3.72;;;;;;;1.49;65.13;98987.69;4971500;28;20117;-81
2022/04/07 04:09:22;;;;;;;6.65;3.72;;;;;;;0.99;64.79;98887.00;4989543;28;20076;-80
2022/04/07 04:11:49;;;;;;;7.13;3.60;;;;;;;1.46;64.85;98952.59;4964074;28;20457;-81
2022/04/07 04:14:15;;;;;;;5.57;3.40;;;;;;;0.63;64.70;98816.44;4953765;28;20058;-83
2022/04/07 04:16:46;;;;;;;5.18;3.35;;;;;;;1.41;64.66;98945.69;4969427;28;20054;-82
2022/04/07 04:19:13;;;;;;;7.88;3.72;;;;;;;1.59;65.07;98971.59;4968259;28;20046;-79
2022/04/07 04:21:39;;;;;;;5.75;4.05;;;;;;;1.37;64.98;98918.28;4953857;28;20141;-83
2022/04/07 04:24:05;;;;;;;7.13;4.35;;;;;;;1.57;65.70;98933.97;4954060;28;20041;-85
2022/04/07 04:26:32;;;;;;;6.53;4.10;;;;;;;1.70;64.93;98934.97;4952626;28;20069;-84
2022/04/07 04:29:01;;;;;;;6.38;3.85;;;;;;;1.42;65.10;98884.19;4979899;28;20429;-84
2022/04/07 04:31:36;;;;;;;6.93;3.90;;;;;;;0.99;64.67;98816.97;4957263;28;20046;-82
2022/04/07 04:38:40;;;;;;;5.60;3.70;;;;;;;1.19;64.89;98807.84;4955392;28;20132;-84
2022/04/07 04:41:09;;;;;;;4.18;3.10;;;;;;;2.03;64.49;98949.06;4966733;28;20517;-84
2022/04/07 04:43:42;;;;;;;5.07;3.13;;;;;;;1.53;64.30;98850.13;4977265;28;20053;-83
2022/04/07 04:46:26;;;;;;;4.80;3.30;;;;;;;1.70;64.49;98881.97;4982639;28;20093;-83
2022/04/07 04:57:56;;;;;;;5.53;3.40;;;;;;;2.69;64.35;98962.63;4957720;28;20054;-85
2022/04/07 05:01:19;;;;;;;5.32;3.80;;;;;;;2.69;64.26;98936.06;4963785;28;20045;-86
2022/04/07 05:05:24;;;;;;;9.07;4.28;;;;;;;3.01;63.83;98972.31;4956006;28;20141;-85
2022/04/07 05:08:22;;;;;;;5.22;2.85;;;;;;;3.00;63.32;98946.63;4984355;28;20046;-83
2022/04/07 05:11:51;;;;;;;5.82;2.85;;;;;;;3.07;63.35;98947.53;4994265;28;20043;-85
2022/04/07 05:14:32;;;;;;;4.72;2.72;;;;;;;2.43;62.76;98841.66;4954470;28;20200;-85
2022/04/07 05:17:33;;;;;;;;;;;;;;;;;;;;;
2022/04/07 05:21:30;;;;;;;4.72;3.50;;;;;;;2.83;62.94;98928.47;4956816;28;20150;-85
2022/04/07 05:33:54;;;;;;;7.43;3.90;;;;;;;2.94;62.82;98992.81;4895317;29;20415;-84
2022/04/07 05:54:58;;;;;;;;;;;;;;;3.33;64.26;98942.56;4895954;29;20137;-81
2022/04/07 05:57:47;;;;;;;;;;;;;;;;;;;;;
2022/04/07 06:01:43;;;;;;;10.68;5.97;;;;;;;2.42;63.02;98742.38;4878165;29;20048;-85
2022/04/07 06:49:13;;;;;;;;;;;;;;;;;;;;;
2022/04/07 06:57:26;;;;;;;4.43;3.17;;;;;;;2.66;67.05;98872.69;4792509;29;21725;-83
2022/04/07 07:00:26;;;;;;;4.60;2.78;;;;;;;1.93;66.93;98743.69;4826128;29;20457;-86
2022/04/07 07:15:32;;;;;;;;;;;;;;;;;;;;;
2022/04/07 07:27:17;;;;;;;4.55;3.45;;;;;;;2.37;67.04;98808.22;4897497;29;20499;-79
2022/04/07 07:29:52;;;;;;;4.97;3.85;;;;;;;1.60;66.70;98695.50;4877316;29;20477;-81
2022/04/07 07:33:18;;;;;;;9.27;4.18;;;;;;;1.52;67.54;98699.66;5002770;28;20034;-82
2022/04/07 07:36:29;;;;;;;7.47;4.20;;;;;;;2.59;67.86;98855.50;5020953;28;20042;-81
2022/04/07 07:40:40;;;;;;;5.72;3.58;;;;;;;1.95;67.99;98723.16;4982180;28;20046;-84
2022/04/07 07:43:09;;;;;;;6.70;3.78;;;;;;;2.21;67.69;98767.00;4955398;28;20047;-80
2022/04/07 07:45:44;;;;;;;8.57;4.50;;;;;;;2.23;68.39;98772.16;4943340;28;20035;-81
2022/04/07 07:52:01;;;;;;;7.95;4.30;;;;;;;2.81;67.88;98838.53;4917351;29;20178;-83
2022/04/07 07:55:36;;;;;;;;;;;;;;;;;;;;;
2022/04/07 07:59:59;;;;;;;;;;;;;;;;;;;;;
2022/04/07 08:29:34;;;;;;;7.00;3.85;;;;;;;3.22;68.36;98820.78;4786717;29;20135;-82
2022/04/07 08:32:07;;;;;;;7.53;4.60;;;;;;;2.81;68.91;98735.75;4772417;29;20055;-84
2022/04/07 08:35:18;;;;;;;10.65;5.43;;;;;;;2.72;68.59;98710.00;4808099;29;20070;-83
2022/04/07 08:37:54;;;;;;;7.68;4.63;;;;;;;2.61;69.15;98683.41;4792339;29;20055;-84
2022/04/07 08:40:22;;;;;;;8.13;4.40;;;;;;;3.02;68.71;98731.59;4816375;29;20082;-83
2022/04/07 08:42:49;;;;;;;6.65;4.35;;;;;;;3.21;69.18;98729.09;4873395;29;20067;-82
2022/04/07 08:45:15;;;;;;;8.70;5.15;;;;;;;2.75;68.95;98673.22;4913762;29;20033;-84
2022/04/07 08:47:50;;;;;;;9.52;5.00;;;;;;;3.55;69.06;98784.06;4896383;29;20047;-84
2022/04/07 08:50:22;;;;;;;7.65;4.80;;;;;;;3.15;69.02;98709.34;4888211;29;20096;-81
2022/04/07 08:53:02;;;;;;;8.75;5.43;;;;;;;3.13;69.11;98695.63;4883044;29;20139;-86
2022/04/07 08:55:31;;;;;;;9.00;4.88;;;;;;;3.20;69.07;98710.22;4900865;29;20482;-87
2022/04/07 08:58:02;;;;;;;9.93;5.32;;;;;;;3.77;69.33;98778.97;4893271;29;20040;-85
2022/04/07 09:00:31;;;;;;;9.93;4.95;;;;;;;2.90;69.26;98623.56;4905770;29;20088;-81
2022/04/07 09:03:00;;;;;;;9.60;5.53;;;;;;;3.34;68.98;98683.69;4904129;29;20041;-87
2022/04/07 09:05:30;;;;;;;10.52;5.85;;;;;;;3.83;69.94;98784.16;4906670;29;20040;-85
2022/04/07 09:11:05;;;;;;;8.27;5.47;;;;;;;3.14;69.53;98621.06;4919343;29;20059;-85
2022/04/07 09:13:44;;;;;;;10.05;5.60;;;;;;;3.82;69.79;98710.38;4917948;29;20178;-84
2022/04/07 09:16:20;;;;;;;7.95;5.00;;;;;;;3.75;69.25;98678.59;4943685;29;20047;-83
2022/04/07 09:18:49;;;;;;;8.63;4.85;;;;;;;3.58;69.38;98627.16;4956580;28;20043;-84
2022/04/07 09:21:25;;;;;;;8.60;5.05;;;;;;;3.56;68.98;98628.88;4919581;29;20040;-85
2022/04/07 09:24:00;;;;;;;9.18;5.00;;;;;;;4.29;69.18;98724.09;4951588;28;20062;-85
2022/04/07 09:26:29;;;;;;;9.55;4.82;;;;;;;3.91;68.76;98676.06;4937039;29;20051;-82
2022/04/07 09:29:24;;;;;;;7.88;4.68;;;;;;;4.20;68.94;98690.63;4935260;29;20179;-87
2022/04/07 09:31:53;;;;;;;7.22;5.22;;;;;;;4.44;68.46;98727.50;4902043;29;20131;-82
2022/04/07 09:34:32;;;;;;;10.75;5.15;;;;;;;4.18;68.09;98689.78;4931413;29;20044;-84
2022/04/07 09:37:11;;;;;;;10.48;4.95;;;;;;;4.47;68.83;98743.84;4941039;28;20043;-81
2022/04/07 09:40:02;;;;;;;10.00;5.80;;;;;;;4.10;68.60;98670.91;4945859;28;21055;-83
2022/04/07 09:42:40;;;;;;;8.23;5.22;;;;;;;4.46;68.19;98711.22;4921059;29;20440;-83
2022/04/07 09:45:13;;;;;;;10.25;5.68;;;;;;;3.92;68.32;98611.69;4946396;28;20035;-85
2022/04/07 09:48:33;;;;;;;8.55;4.88;;;;;;;4.36;68.12;98652.81;4936178;29;20039;-83
2022/04/07 09:51:09;;;;;;;8.02;5.07;;;;;;;4.25;68.26;98614.22;4913799;29;20055;-84
2022/04/07 09:54:18;;;;;;;10.65;6.00;;;;;;;5.04;67.98;98717.06;4935916;29;20085;-85
2022/04/07 09:56:47;;;;;;;10.25;5.65;;;;;;;4.73;67.75;98649.28;4947223;29;20039;-82
2022/04/07 09:59:19;;;;;;;8.00;4.80;;;;;;;4.78;67.14;98645.81;4926779;29;20490;-83
2022/04/07 10:02:12;;;;;;;8.73;5.20;;;;;;;4.96;66.12;98639.75;4900781;29;20516;-81
2022/04/07 10:05:15;;;;;;;8.82;5.20;;;;;;;5.18;66.72;98656.84;4939894;28;20052;-81
2022/04/07 10:07:48;;;;;;;10.07;5.70;;;;;;;5.13;66.63;98624.19;4932088;29;20043;-82
2022/04/07 10:10:59;;;;;;;7.75;5.13;;;;;;;5.29;65.84;98611.19;4948932;28;20157;-83
2022/04/07 10:13:30;;;;;;;9.73;6.15;;;;;;;5.67;66.07;98659.09;4968919;28;20043;-81
2022/04/07 10:15:58;;;;;;;9.50;5.47;;;;;;;5.37;66.11;98609.44;4952534;29;20082;-85
2022/04/07 10:22:52;;;;;;;;;;;;;;;;;;;;;
2022/04/07 10:30:24;;;;;;;9.68;5.78;;;;;;;6.03;64.31;98682.97;4939947;29;20039;-86
2022/04/07 10:33:57;;;;;;;10.43;6.53;;;;;;;5.62;64.67;98617.00;4941396;29;20049;-81
2022/04/07 10:36:38;;;;;;;12.57;5.80;;;;;;;5.45;65.11;98616.25;4894300;29;20048;-82
2022/04/07 10:39:21;;;;;;;11.27;6.13;;;;;;;5.59;65.40;98635.09;4949083;29;20054;-83
2022/04/07 10:41:47;;;;;;;11.38;6.10;;;;;;;5.40;64.63;98611.13;4935174;29;20090;-82
2022/04/07 10:44:33;;;;;;;9.38;5.95;;;;;;;5.48;65.44;98605.91;4952608;28;20122;-82
2022/04/07 10:47:29;;;;;;;8.05;5.60;;;;;;;5.55;64.92;98611.00;4952536;29;20051;-82
2022/04/07 10:49:58;;;;;;;10.93;6.40;;;;;;;5.63;65.17;98618.69;4940226;29;20058;-83
2022/04/07 10:52:28;;;;;;;9.60;5.85;;;;;;;5.93;65.36;98645.13;4960514;28;20070;-82
2022/04/07 10:55:19;;;;;;;10.45;6.43;;;;;;;6.20;65.27;98674.22;4952084;29;20039;-82
2022/04/07 10:58:25;;;;;;;11.43;6.45;;;;;;;5.63;65.50;98574.81;4963408;28;21517;-81
2022/04/07 11:01:32;;;;;;;10.60;6.45;;;;;;;5.59;64.02;98557.66;4950321;28;20486;-81
2022/04/07 11:04:38;;;;;;;11.35;7.03;;;;;;;6.37;64.15;98671.47;4954613;29;20107;-85
2022/04/07 11:07:24;;;;;;;11.05;6.63;;;;;;;6.05;64.75;98591.72;4969408;28;20082;-83
2022/04/07 11:10:11;;;;;;;14.02;7.22;;;;;;;6.65;64.38;98660.00;4953232;29;20138;-83
2022/04/07 11:13:02;;;;;;;12.93;7.18;;;;;;;6.53;64.12;98645.47;4953215;29;20154;-84
2022/04/07 11:15:44;;;;;;;13.02;7.13;;;;;;;6.39;64.85;98599.09;4943860;29;20047;-82
2022/04/07 11:18:33;;;;;;;11.90;7.07;;;;;;;6.84;64.51;98658.91;4935260;29;20134;-83
2022/04/07 11:25:15;;;;;;;12.65;7.70;;;;;;;6.05;63.81;98514.22;4932769;29;20039;-84
2022/04/07 11:28:08;;;;;;;12.15;7.65;;;;;;;6.94;63.64;98633.78;4960272;29;20043;-82
2022/04/07 11:31:38;;;;;;;12.88;7.40;;;;;;;6.63;63.68;98565.22;4941174;28;20057;-83
2022/04/07 11:38:49;;;;;;;10.77;7.07;;;;;;;6.66;63.09;98517.78;4854138;29;19931;-82
2022/04/07 11:42:08;;;;;;;13.30;8.27;;;;;;;6.62;63.08;98511.81;4800020;29;20412;-84
2022/04/07 11:45:38;;;;;;;11.00;7.28;;;;;;;7.23;63.43;98611.84;4785666;29;20635;-84
2022/04/07 11:52:19;;;;;;;12.35;7.45;;;;;;;6.84;63.32;98506.34;4795438;29;20075;-82
2022/04/07 11:55:27;;;;;;;12.90;7.75;;;;;;;7.41;63.02;98591.75;4807136;29;20081;-82
2022/04/07 11:59:23;;;;;;;12.43;7.57;;;;;;;7.54;62.98;98609.66;4792371;29;20119;-84
2022/04/07 12:06:13;;;;;;;13.47;7.90;;;;;;;7.51;62.73;98565.69;4840392;29;20138;-83
2022/04/07 12:09:06;;;;;;;12.88;8.40;;;;;;;7.35;62.52;98494.34;4894605;29;20831;-82
2022/04/07 12:11:46;;;;;;;14.35;8.93;;;;;;;7.82;62.11;98539.28;4894771;29;20060;-84
2022/04/07 12:14:15;;;;;;;13.65;9.07;;;;;;;8.54;62.45;98605.34;4892958;29;20548;-83
2022/04/07 12:17:02;;;;;;;13.20;9.27;;;;;;;8.64;61.53;98606.03;4890102;28;20083;-83
2022/04/07 12:19:56;;;;;;;14.02;8.55;;;;;;;8.27;61.68;98535.00;4950999;29;20070;-84
2022/04/07 12:22:30;;;;;;;13.23;8.30;;;;;;;8.48;61.75;98519.91;4957345;29;21191;-84
2022/04/07 12:25:09;;;;;;;12.18;7.75;;;;;;;8.80;61.46;98540.00;4950125;29;20107;-82
2022/04/07 12:28:17;;;;;;;13.70;8.82;;;;;;;8.89;60.73;98529.41;4981533;23;20092;-81
2022/04/07 12:31:30;;;;;;;14.73;8.05;;;;;;;9.17;59.74;98603.19;4982576;28;20057;-83
2022/04/07 12:34:21;;;;;;;13.43;8.02;;;;;;;9.34;60.10;98593.28;4995108;28;20046;-82
2022/04/07 12:36:52;;;;;;;13.18;8.15;;;;;;;9.41;60.35;98593.13;4989416;28;20108;-84
2022/04/07 12:39:21;;;;;;;12.02;7.63;;;;;;;9.40;59.58;98597.47;5005253;28;20090;-83
2022/04/07 12:41:51;;;;;;;14.50;8.23;;;;;;;9.11;59.33;98585.19;4991076;28;20038;-83
2022/04/07 12:44:34;;;;;;;14.05;8.05;;;;;;;9.02;59.46;98583.63;4976486;28;20053;-83
2022/04/07 12:47:08;;;;;;;11.57;7.72;;;;;;;9.10;59.08;98604.22;4994217;28;20104;-83
2022/04/07 12:49:36;;;;;;;14.43;8.48;;;;;;;8.66;59.17;98505.72;4974518;28;20045;-81
2022/04/07 12:52:08;;;;;;;13.82;8.48;;;;;;;9.02;59.29;98566.31;5006682;28;20037;-83
2022/04/07 12:55:23;;;;;;;13.77;8.60;;;;;;;9.33;59.79;98575.13;5007612;28;20046;-82
2022/04/07 12:57:52;;;;;;;13.15;8.50;;;;;;;9.21;58.11;98581.47;4998420;28;20727;-81
2022/04/07 13:00:41;;;;;;;13.30;7.88;;;;;;;9.19;58.82;98581.50;4989195;28;20054;-83
2022/04/07 13:03:54;;;;;;;13.25;8.38;;;;;;;9.46;59.14;98575.72;5006969;28;20057;-83
2022/04/07 13:06:30;;;;;;;10.95;7.53;;;;;;;9.42;58.74;98561.09;4958083;28;20046;-82
2022/04/07 13:09:57;;;;;;;14.43;7.85;;;;;;;8.78;58.11;98455.31;4988788;28;20049;-82
2022/04/07 13:12:48;;;;;;;12.57;7.82;;;;;;;9.18;58.33;98540.88;4981332;28;20050;-83
2022/04/07 13:16:31;;;;;;;;;;;;;;;;;;;;;
2022/04/07 13:19:05;;;;;;;10.35;7.43;;;;;;;8.89;57.90;98493.09;4912650;28;20048;-79
2022/04/07 13:21:40;;;;;;;13.38;7.50;;;;;;;8.93;58.84;98460.16;4970791;28;20066;-84
2022/04/07 13:24:50;;;;;;;14.38;7.90;;;;;;;9.31;58.15;98489.53;4970083;28;20047;-84
2022/04/07 13:37:00;;;;;;;11.98;7.40;;;;;;;9.53;57.32;98488.13;4922315;29;20116;-84
2022/04/07 13:44:14;;;;;;;11.13;7.65;;;;;;;9.03;57.43;98409.75;4775515;29;20057;-86
2022/04/07 13:47:43;;;;;;;10.35;7.55;;;;;;;9.29;57.06;98470.53;4798209;29;20485;-85
2022/04/07 13:50:51;;;;;;;15.77;7.88;;;;;;;8.97;57.07;98414.22;4778022;29;20133;-81
2022/04/07 13:53:55;;;;;;;13.85;8.30;;;;;;;9.21;56.69;98477.66;4832229;29;20126;-82
2022/04/07 13:56:22;;;;;;;13.68;8.65;;;;;;;8.97;57.18;98422.84;4834300;29;20057;-83
2022/04/07 13:58:49;;;;;;;15.32;9.73;;;;;;;9.27;57.42;98461.94;4855179;29;20094;-83
2022/04/07 14:01:25;;;;;;;13.63;8.57;;;;;;;9.63;57.12;98542.38;4913976;29;20343;-80
2022/04/07 14:04:18;;;;;;;;;;;;;;;;;;;;;
2022/04/07 14:07:16;;;;;;;13.10;8.60;;;;;;;9.74;56.82;98520.50;4915775;29;20078;-83
2022/04/07 14:10:17;;;;;;;;;;;;;;;9.74;57.06;98517.88;4941171;28;20082;-83
2022/04/07 14:13:13;;;;;;;13.50;8.27;;;;;;;9.42;57.28;98458.09;4916709;29;20022;-81
2022/04/07 14:15:45;;;;;;;11.77;7.38;;;;;;;9.15;57.15;98411.19;4964596;28;20051;-81
2022/04/07 14:18:18;;;;;;;12.07;7.75;;;;;;;9.71;56.81;98512.78;4938680;28;20049;-83
2022/04/07 14:20:46;;;;;;;12.45;7.88;;;;;;;9.50;56.88;98484.69;4953224;28;20069;-84
2022/04/07 14:23:25;;;;;;;11.45;7.78;;;;;;;9.12;56.71;98424.22;4951894;28;20066;-82
2022/04/07 14:26:05;;;;;;;11.95;8.00;;;;;;;9.68;57.04;98510.25;4948475;28;20399;-82
2022/04/07 14:28:40;;;;;;;13.88;8.25;;;;;;;9.39;56.83;98478.06;4966961;28;20057;-81
2022/04/07 14:31:07;;;;;;;14.88;8.52;;;;;;;9.60;57.53;98511.28;4986686;28;20079;-83
2022/04/07 14:33:36;;;;;;;11.02;7.75;;;;;;;9.30;56.90;98459.25;4961856;28;20414;-85
2022/04/07 14:36:18;;;;;;;12.43;8.30;;;;;;;9.08;57.34;98434.72;4958141;28;20064;-83
2022/04/07 14:38:55;;;;;;;11.07;8.18;;;;;;;9.08;57.19;98450.28;4955264;28;20093;-79
2022/04/07 14:41:22;;;;;;;12.95;8.18;;;;;;;8.77;57.58;98391.34;4988645;28;20038;-83
2022/04/07 14:43:48;;;;;;;10.48;8.00;;;;;;;9.19;57.86;98456.06;4995239;28;20097;-82
2022/04/07 14:46:15;;;;;;;12.35;8.60;;;;;;;9.13;57.55;98456.22;4956138;28;20038;-82
2022/04/07 14:48:41;;;;;;;11.85;8.60;;;;;;;9.07;57.83;98446.84;4954517;28;20064;-83
2022/04/07 14:51:10;;;;;;;13.35;9.43;;;;;;;9.30;57.88;98487.81;4969665;28;20065;-82
2022/04/07 14:54:08;;;;;;;21.58;12.48;;;;;;;9.19;58.06;98480.28;4991189;28;20081;-83
2022/04/07 14:56:52;;;;;;;24.55;14.57;;;;;;;8.98;58.15;98440.13;4962006;28;20061;-81
2022/04/07 14:59:25;;;;;;;19.67;12.93;;;;;;;8.88;58.27;98441.25;4961848;28;20043;-84
2022/04/07 15:02:12;;;;;;;14.05;9.13;;;;;;;8.97;58.35;98477.34;4980192;28;20510;-83
2022/04/07 15:04:40;;;;;;;13.50;9.50;;;;;;;8.80;58.55;98437.97;4956144;28;20030;-82
2022/04/07 15:07:09;;;;;;;12.00;9.20;;;;;;;8.47;58.39;98396.34;4989129;28;20145;-83
2022/04/07 15:10:01;;;;;;;14.50;9.02;;;;;;;9.04;58.78;98473.72;4944382;28;20085;-83
2022/04/07 15:12:34;;;;;;;12.55;8.68;;;;;;;8.85;58.77;98447.34;4989155;28;20093;-82
2022/04/07 15:15:12;;;;;;;11.98;8.93;;;;;;;8.25;58.73;98356.22;4990065;28;20057;-85
2022/04/07 15:18:39;;;;;;;12.73;8.35;;;;;;;8.88;59.10;98467.19;4990717;28;20042;-83
2022/04/07 15:21:11;;;;;;;12.95;8.18;;;;;;;8.19;59.01;98371.03;4958529;28;20177;-80
2022/04/07 15:24:20;;;;;;;11.85;8.23;;;;;;;8.31;59.59;98388.06;4975780;28;20057;-83
2022/04/07 15:27:21;;;;;;;11.50;7.82;;;;;;;8.37;59.49;98396.53;4947993;28;20046;-84
2022/04/07 15:30:10;;;;;;;13.65;8.25;;;;;;;8.39;59.52;98392.19;4959314;28;20057;-84
2022/04/07 15:33:04;;;;;;;17.13;10.95;;;;;;;8.38;59.24;98413.81;4959113;28;20102;-83
2022/04/07 15:36:04;;;;;;;15.88;11.30;;;;;;;8.35;59.56;98406.09;4958709;28;20054;-83
2022/04/07 15:38:33;;;;;;;13.88;9.65;;;;;;;8.30;59.62;98400.16;4952049;28;20088;-82
2022/04/07 15:41:23;;;;;;;11.63;9.00;;;;;;;8.43;59.20;98419.75;4973234;28;20093;-84
2022/04/07 15:44:03;;;;;;;13.13;9.27;;;;;;;8.26;59.44;98395.94;4993302;28;20046;-83
2022/04/07 15:46:32;;;;;;;13.98;9.82;;;;;;;8.34;59.80;98414.75;4944751;28;20088;-79
2022/04/07 15:49:27;;;;;;;13.68;8.75;;;;;;;8.01;60.15;98373.16;4978303;28;20038;-84
2022/04/07 15:56:27;;;;;;;12.70;8.65;;;;;;;7.96;59.72;98367.22;4966759;28;20054;-82
2022/04/07 15:58:57;;;;;;;13.20;9.40;;;;;;;7.79;60.36;98347.69;4992324;28;20076;-86
2022/04/07 16:01:47;;;;;;;12.65;8.60;;;;;;;8.52;60.13;98455.03;4976734;28;20046;-85